sensor_id;sensor_type;location;lat;lon;timestamp;pressure;altitude;pressure_sealevel;temperature;humidity
36254;BME280;22291;52.250;21.228;2022-09-13T00:00:59;100104.53;;;8.67;87.82
36254;BME280;22291;52.250;21.228;2022-09-13T00:03:28;100108.98;;;8.60;87.70
36254;BME280;22291;52.250;21.228;2022-09-13T00:05:54;100102.63;;;8.53;87.67
36254;BME280;22291;52.250;21.228;2022-09-13T00:08:20;100108.42;;;8.47;87.26
36254;BME280;22291;52.250;21.228;2022-09-13T00:10:47;100113.32;;;8.42;87.40
36254;BME280;22291;52.250;21.228;2022-09-13T00:13:15;100111.52;;;8.37;87.68
36254;BME280;22291;52.250;21.228;2022-09-13T00:15:44;100114.86;;;8.32;87.80
36254;BME280;22291;52.250;21.228;2022-09-13T00:18:16;100116.30;;;8.27;87.92
36254;BME280;22291;52.250;21.228;2022-09-13T00:20:44;100117.48;;;8.20;87.92
36254;BME280;22291;52.250;21.228;2022-09-13T00:23:11;100118.13;;;8.15;87.92
36254;BME280;22291;52.250;21.228;2022-09-13T00:25:38;100114.73;;;8.09;88.04
36254;BME280;22291;52.250;21.228;2022-09-13T00:28:06;100119.39;;;8.03;88.24
36254;BME280;22291;52.250;21.228;2022-09-13T00:30:32;100113.80;;;8.00;88.29
36254;BME280;22291;52.250;21.228;2022-09-13T00:32:59;100109.32;;;7.95;87.99
36254;BME280;22291;52.250;21.228;2022-09-13T00:35:27;100112.89;;;7.91;87.89
36254;BME280;22291;52.250;21.228;2022-09-13T00:37:53;100112.71;;;7.84;87.98
36254;BME280;22291;52.250;21.228;2022-09-13T00:40:20;100111.72;;;7.80;88.02
36254;BME280;22291;52.250;21.228;2022-09-13T00:42:46;100112.30;;;7.77;88.15
36254;BME280;22291;52.250;21.228;2022-09-13T00:45:15;100109.95;;;7.73;88.40
36254;BME280;22291;52.250;21.228;2022-09-13T00:47:50;100111.87;;;7.70;88.26
36254;BME280;22291;52.250;21.228;2022-09-13T00:50:24;100108.98;;;7.66;88.32
36254;BME280;22291;52.250;21.228;2022-09-13T00:53:01;100108.50;;;7.62;88.07
36254;BME280;22291;52.250;21.228;2022-09-13T00:55:45;100109.93;;;7.57;88.08
36254;BME280;22291;52.250;21.228;2022-09-13T00:58:18;100112.14;;;7.52;87.94
36254;BME280;22291;52.250;21.228;2022-09-13T01:00:48;100106.62;;;7.43;88.09
36254;BME280;22291;52.250;21.228;2022-09-13T01:03:17;100105.63;;;7.39;88.12
36254;BME280;22291;52.250;21.228;2022-09-13T01:05:51;100109.97;;;7.35;88.18
36254;BME280;22291;52.250;21.228;2022-09-13T01:08:22;100116.25;;;7.31;88.17
36254;BME280;22291;52.250;21.228;2022-09-13T01:10:50;100113.63;;;7.25;88.27
36254;BME280;22291;52.250;21.228;2022-09-13T01:13:20;100112.04;;;7.22;88.13
36254;BME280;22291;52.250;21.228;2022-09-13T01:15:48;100116.70;;;7.16;88.27
36254;BME280;22291;52.250;21.228;2022-09-13T01:18:15;100116.75;;;7.14;88.38
36254;BME280;22291;52.250;21.228;2022-09-13T01:30:16;100111.81;;;6.99;88.76
36254;BME280;22291;52.250;21.228;2022-09-13T01:39:05;100113.07;;;6.85;88.84
36254;BME280;22291;52.250;21.228;2022-09-13T01:41:58;100109.89;;;6.81;88.50
36254;BME280;22291;52.250;21.228;2022-09-13T01:53:04;100111.99;;;6.62;88.62
36254;BME280;22291;52.250;21.228;2022-09-13T01:58:39;100103.20;;;6.57;88.59
36254;BME280;22291;52.250;21.228;2022-09-13T02:01:15;100097.05;;;6.53;88.64
36254;BME280;22291;52.250;21.228;2022-09-13T02:04:06;100087.17;;;6.49;88.77
36254;BME280;22291;52.250;21.228;2022-09-13T02:06:37;100085.89;;;6.44;88.79
36254;BME280;22291;52.250;21.228;2022-09-13T02:09:12;100088.86;;;6.42;88.72
36254;BME280;22291;52.250;21.228;2022-09-13T02:11:42;100090.50;;;6.38;88.71
36254;BME280;22291;52.250;21.228;2022-09-13T02:14:35;100090.83;;;6.34;88.63
36254;BME280;22291;52.250;21.228;2022-09-13T02:17:09;100094.36;;;6.29;88.67
36254;BME280;22291;52.250;21.228;2022-09-13T02:22:24;100092.56;;;6.22;88.67
36254;BME280;22291;52.250;21.228;2022-09-13T02:24:55;100099.59;;;6.18;88.94
36254;BME280;22291;52.250;21.228;2022-09-13T02:27:26;100090.48;;;6.16;89.07
36254;BME280;22291;52.250;21.228;2022-09-13T02:30:03;100089.14;;;6.14;89.18
36254;BME280;22291;52.250;21.228;2022-09-13T02:35:11;100077.66;;;6.08;89.17
36254;BME280;22291;52.250;21.228;2022-09-13T02:37:39;100079.02;;;6.06;88.97
36254;BME280;22291;52.250;21.228;2022-09-13T02:40:11;100079.84;;;6.04;88.82
36254;BME280;22291;52.250;21.228;2022-09-13T02:42:42;100077.45;;;6.02;88.96
36254;BME280;22291;52.250;21.228;2022-09-13T02:45:12;100072.35;;;6.01;89.11
36254;BME280;22291;52.250;21.228;2022-09-13T02:47:58;100068.37;;;5.98;88.94
36254;BME280;22291;52.250;21.228;2022-09-13T02:50:40;100074.26;;;5.97;88.91
36254;BME280;22291;52.250;21.228;2022-09-13T02:53:38;100073.47;;;5.94;88.98
36254;BME280;22291;52.250;21.228;2022-09-13T02:59:15;100067.05;;;5.90;89.01
36254;BME280;22291;52.250;21.228;2022-09-13T03:01:59;100069.78;;;5.85;88.72
36254;BME280;22291;52.250;21.228;2022-09-13T03:04:28;100066.36;;;5.79;88.85
36254;BME280;22291;52.250;21.228;2022-09-13T03:06:54;100058.86;;;5.76;88.92
36254;BME280;22291;52.250;21.228;2022-09-13T03:09:21;100052.71;;;5.73;89.03
36254;BME280;22291;52.250;21.228;2022-09-13T03:12:07;100053.82;;;5.70;89.14
36254;BME280;22291;52.250;21.228;2022-09-13T03:14:48;100049.28;;;5.68;89.00
36254;BME280;22291;52.250;21.228;2022-09-13T03:17:31;100052.52;;;5.65;88.97
36254;BME280;22291;52.250;21.228;2022-09-13T03:25:44;100050.20;;;5.55;89.11
36254;BME280;22291;52.250;21.228;2022-09-13T03:31:06;100052.89;;;5.53;89.38
36254;BME280;22291;52.250;21.228;2022-09-13T03:34:09;100047.55;;;5.50;89.33
36254;BME280;22291;52.250;21.228;2022-09-13T03:36:55;100040.58;;;5.49;89.29
36254;BME280;22291;52.250;21.228;2022-09-13T03:39:33;100044.09;;;5.47;89.23
36254;BME280;22291;52.250;21.228;2022-09-13T03:42:01;100046.78;;;5.45;89.19
36254;BME280;22291;52.250;21.228;2022-09-13T03:44:32;100045.71;;;5.43;88.97
36254;BME280;22291;52.250;21.228;2022-09-13T03:47:00;100047.88;;;5.43;89.15
36254;BME280;22291;52.250;21.228;2022-09-13T03:49:29;100035.30;;;5.41;89.06
36254;BME280;22291;52.250;21.228;2022-09-13T03:51:56;100036.91;;;5.40;89.29
36254;BME280;22291;52.250;21.228;2022-09-13T03:54:28;100031.31;;;5.36;89.01
36254;BME280;22291;52.250;21.228;2022-09-13T03:57:15;100025.95;;;5.34;88.87
36254;BME280;22291;52.250;21.228;2022-09-13T03:59:53;100031.31;;;5.34;89.02
36254;BME280;22291;52.250;21.228;2022-09-13T04:02:21;100026.22;;;5.32;89.10
36254;BME280;22291;52.250;21.228;2022-09-13T04:04:49;100028.39;;;5.30;88.94
36254;BME280;22291;52.250;21.228;2022-09-13T04:07:18;100022.23;;;5.30;89.10
36254;BME280;22291;52.250;21.228;2022-09-13T04:09:46;100024.65;;;5.29;89.03
36254;BME280;22291;52.250;21.228;2022-09-13T04:12:14;100021.69;;;5.28;88.92
36254;BME280;22291;52.250;21.228;2022-09-13T04:14:42;100023.58;;;5.27;88.96
36254;BME280;22291;52.250;21.228;2022-09-13T04:17:09;100027.36;;;5.26;89.12
36254;BME280;22291;52.250;21.228;2022-09-13T04:19:36;100021.73;;;5.25;89.02
36254;BME280;22291;52.250;21.228;2022-09-13T04:22:02;100022.28;;;5.24;88.98
36254;BME280;22291;52.250;21.228;2022-09-13T04:24:30;100019.33;;;5.23;89.09
36254;BME280;22291;52.250;21.228;2022-09-13T04:26:57;100022.00;;;5.23;89.15
36254;BME280;22291;52.250;21.228;2022-09-13T04:29:25;100013.41;;;5.24;89.38
36254;BME280;22291;52.250;21.228;2022-09-13T04:31:53;100014.23;;;5.24;89.29
36254;BME280;22291;52.250;21.228;2022-09-13T04:34:21;100018.50;;;5.26;89.17
36254;BME280;22291;52.250;21.228;2022-09-13T04:36:49;100026.53;;;5.28;89.62
36254;BME280;22291;52.250;21.228;2022-09-13T04:39:17;100024.09;;;5.29;90.00
36254;BME280;22291;52.250;21.228;2022-09-13T04:41:46;100027.05;;;5.30;90.14
36254;BME280;22291;52.250;21.228;2022-09-13T04:44:15;100027.02;;;5.33;90.39
36254;BME280;22291;52.250;21.228;2022-09-13T04:46:47;100026.74;;;5.34;90.66
36254;BME280;22291;52.250;21.228;2022-09-13T04:49:15;100021.34;;;5.39;90.84
36254;BME280;22291;52.250;21.228;2022-09-13T04:51:43;100023.46;;;5.42;90.95
36254;BME280;22291;52.250;21.228;2022-09-13T04:54:10;100027.20;;;5.47;91.14
36254;BME280;22291;52.250;21.228;2022-09-13T04:56:37;100028.23;;;5.51;91.41
36254;BME280;22291;52.250;21.228;2022-09-13T04:59:03;100024.16;;;5.53;91.41
36254;BME280;22291;52.250;21.228;2022-09-13T05:01:29;100031.14;;;5.57;91.56
36254;BME280;22291;52.250;21.228;2022-09-13T05:03:55;100030.55;;;5.60;91.78
36254;BME280;22291;52.250;21.228;2022-09-13T05:06:21;100032.39;;;5.67;92.21
36254;BME280;22291;52.250;21.228;2022-09-13T05:08:52;100021.89;;;5.71;92.33
36254;BME280;22291;52.250;21.228;2022-09-13T05:11:25;100027.20;;;5.76;92.54
36254;BME280;22291;52.250;21.228;2022-09-13T05:13:55;100033.31;;;5.84;92.84
36254;BME280;22291;52.250;21.228;2022-09-13T05:16:22;100029.47;;;5.90;92.88
36254;BME280;22291;52.250;21.228;2022-09-13T05:18:49;100027.56;;;5.93;92.61
36254;BME280;22291;52.250;21.228;2022-09-13T05:21:17;100022.47;;;5.94;92.63
36254;BME280;22291;52.250;21.228;2022-09-13T05:23:44;100019.72;;;6.02;93.54
36254;BME280;22291;52.250;21.228;2022-09-13T05:26:12;100018.30;;;6.10;93.73
36254;BME280;22291;52.250;21.228;2022-09-13T05:28:38;100015.52;;;6.17;93.99
36254;BME280;22291;52.250;21.228;2022-09-13T05:31:12;100023.22;;;6.27;94.48
36254;BME280;22291;52.250;21.228;2022-09-13T05:33:42;100015.56;;;6.36;94.48
36254;BME280;22291;52.250;21.228;2022-09-13T05:36:10;100019.23;;;6.46;95.01
36254;BME280;22291;52.250;21.228;2022-09-13T05:38:36;100021.22;;;6.59;95.48
36254;BME280;22291;52.250;21.228;2022-09-13T05:41:04;100017.58;;;6.69;95.58
36254;BME280;22291;52.250;21.228;2022-09-13T05:43:34;100025.81;;;6.78;95.09
36254;BME280;22291;52.250;21.228;2022-09-13T05:46:10;100027.33;;;6.84;94.58
36254;BME280;22291;52.250;21.228;2022-09-13T05:48:39;100031.00;;;6.90;94.81
36254;BME280;22291;52.250;21.228;2022-09-13T05:51:19;100024.90;;;7.04;95.73
36254;BME280;22291;52.250;21.228;2022-09-13T05:53:51;100027.64;;;7.18;95.82
36254;BME280;22291;52.250;21.228;2022-09-13T05:56:23;100021.03;;;7.29;96.11
36254;BME280;22291;52.250;21.228;2022-09-13T05:58:52;100010.30;;;7.43;96.43
36254;BME280;22291;52.250;21.228;2022-09-13T06:01:22;100008.23;;;7.54;96.34
36254;BME280;22291;52.250;21.228;2022-09-13T06:03:52;100010.36;;;7.71;97.37
36254;BME280;22291;52.250;21.228;2022-09-13T06:06:19;100004.50;;;7.82;96.80
36254;BME280;22291;52.250;21.228;2022-09-13T06:08:47;99994.59;;;7.94;96.96
36254;BME280;22291;52.250;21.228;2022-09-13T06:11:19;99993.55;;;8.07;97.50
36254;BME280;22291;52.250;21.228;2022-09-13T06:13:46;99996.79;;;8.20;96.62
36254;BME280;22291;52.250;21.228;2022-09-13T06:16:13;99995.23;;;8.30;97.15
36254;BME280;22291;52.250;21.228;2022-09-13T06:18:42;99988.06;;;8.39;96.81
36254;BME280;22291;52.250;21.228;2022-09-13T06:21:11;99992.75;;;8.48;96.61
36254;BME280;22291;52.250;21.228;2022-09-13T06:23:45;99995.38;;;8.64;97.87
36254;BME280;22291;52.250;21.228;2022-09-13T06:26:15;99989.72;;;8.77;97.96
36254;BME280;22291;52.250;21.228;2022-09-13T06:28:42;99993.11;;;8.94;98.22
36254;BME280;22291;52.250;21.228;2022-09-13T06:31:15;99990.66;;;9.06;98.02
36254;BME280;22291;52.250;21.228;2022-09-13T06:33:43;99996.78;;;9.21;97.85
36254;BME280;22291;52.250;21.228;2022-09-13T06:36:18;99996.13;;;9.26;97.17
36254;BME280;22291;52.250;21.228;2022-09-13T06:38:44;99998.15;;;9.43;98.31
36254;BME280;22291;52.250;21.228;2022-09-13T06:41:13;99996.64;;;9.60;98.52
36254;BME280;22291;52.250;21.228;2022-09-13T06:43:42;100003.73;;;9.67;97.51
36254;BME280;22291;52.250;21.228;2022-09-13T06:46:14;99993.97;;;9.80;97.71
36254;BME280;22291;52.250;21.228;2022-09-13T06:48:43;99991.89;;;9.97;98.20
36254;BME280;22291;52.250;21.228;2022-09-13T06:51:13;99994.66;;;10.14;98.72
36254;BME280;22291;52.250;21.228;2022-09-13T06:53:42;99988.23;;;10.21;97.24
36254;BME280;22291;52.250;21.228;2022-09-13T06:56:11;99999.72;;;10.27;96.81
36254;BME280;22291;52.250;21.228;2022-09-13T06:58:41;100001.91;;;10.36;97.51
36254;BME280;22291;52.250;21.228;2022-09-13T07:01:14;99998.53;;;10.51;97.85
36254;BME280;22291;52.250;21.228;2022-09-13T07:03:43;99998.45;;;10.62;97.60
36254;BME280;22291;52.250;21.228;2022-09-13T07:06:13;99997.11;;;10.79;97.97
36254;BME280;22291;52.250;21.228;2022-09-13T07:08:42;100001.52;;;10.95;98.48
36254;BME280;22291;52.250;21.228;2022-09-13T07:11:11;100004.93;;;11.16;98.31
36254;BME280;22291;52.250;21.228;2022-09-13T07:13:39;99996.38;;;11.29;97.58
36254;BME280;22291;52.250;21.228;2022-09-13T07:18:56;99985.73;;;11.65;96.69
36254;BME280;22291;52.250;21.228;2022-09-13T07:21:25;99985.60;;;11.76;95.83
36254;BME280;22291;52.250;21.228;2022-09-13T07:23:53;99989.73;;;11.91;96.71
36254;BME280;22291;52.250;21.228;2022-09-13T07:26:21;99989.57;;;12.11;95.98
36254;BME280;22291;52.250;21.228;2022-09-13T07:28:50;99987.17;;;12.39;97.96
36254;BME280;22291;52.250;21.228;2022-09-13T07:31:24;99981.02;;;12.66;96.71
36254;BME280;22291;52.250;21.228;2022-09-13T07:33:54;99978.80;;;12.95;96.74
36254;BME280;22291;52.250;21.228;2022-09-13T07:36:23;99974.30;;;13.26;95.02
36254;BME280;22291;52.250;21.228;2022-09-13T07:38:50;99978.13;;;13.53;94.58
36254;BME280;22291;52.250;21.228;2022-09-13T07:41:19;99979.31;;;13.82;94.62
36254;BME280;22291;52.250;21.228;2022-09-13T07:43:48;99983.29;;;14.04;93.01
36254;BME280;22291;52.250;21.228;2022-09-13T07:46:17;99981.81;;;14.31;91.77
36254;BME280;22291;52.250;21.228;2022-09-13T07:48:46;99982.00;;;14.56;90.27
36254;BME280;22291;52.250;21.228;2022-09-13T07:51:17;99984.86;;;14.94;91.38
36254;BME280;22291;52.250;21.228;2022-09-13T07:53:48;99978.83;;;15.52;89.78
36254;BME280;22291;52.250;21.228;2022-09-13T07:56:22;99990.45;;;16.02;88.86
36254;BME280;22291;52.250;21.228;2022-09-13T07:58:47;99987.68;;;16.79;88.92
36254;BME280;22291;52.250;21.228;2022-09-13T08:01:20;99986.22;;;17.54;86.39
36254;BME280;22291;52.250;21.228;2022-09-13T08:03:53;99995.04;;;18.26;84.66
36254;BME280;22291;52.250;21.228;2022-09-13T08:06:21;99987.95;;;18.92;81.65
36254;BME280;22291;52.250;21.228;2022-09-13T08:08:49;99986.43;;;19.32;77.34
36254;BME280;22291;52.250;21.228;2022-09-13T08:11:18;99992.27;;;19.48;76.64
36254;BME280;22291;52.250;21.228;2022-09-13T08:13:46;99996.09;;;19.98;76.03
36254;BME280;22291;52.250;21.228;2022-09-13T08:16:15;99987.84;;;20.22;73.54
36254;BME280;22291;52.250;21.228;2022-09-13T08:18:44;99986.52;;;20.32;72.63
36254;BME280;22291;52.250;21.228;2022-09-13T08:21:13;99975.14;;;20.30;70.46
36254;BME280;22291;52.250;21.228;2022-09-13T08:23:40;99975.39;;;20.39;70.99
36254;BME280;22291;52.250;21.228;2022-09-13T08:26:07;99971.35;;;20.57;68.97
36254;BME280;22291;52.250;21.228;2022-09-13T08:28:36;99974.24;;;20.78;69.97
36254;BME280;22291;52.250;21.228;2022-09-13T08:31:13;99964.08;;;20.86;67.78
36254;BME280;22291;52.250;21.228;2022-09-13T08:33:46;99963.09;;;20.88;67.25
36254;BME280;22291;52.250;21.228;2022-09-13T08:36:15;99960.61;;;21.07;67.99
36254;BME280;22291;52.250;21.228;2022-09-13T08:38:47;99952.13;;;20.99;64.52
36254;BME280;22291;52.250;21.228;2022-09-13T08:46:46;99945.19;;;21.55;66.18
36254;BME280;22291;52.250;21.228;2022-09-13T08:49:26;99946.75;;;22.14;64.96
36254;BME280;22291;52.250;21.228;2022-09-13T08:51:57;99952.14;;;22.71;63.98
36254;BME280;22291;52.250;21.228;2022-09-13T08:54:32;99947.59;;;23.21;63.00
36254;BME280;22291;52.250;21.228;2022-09-13T08:57:15;99944.32;;;23.37;59.82
36254;BME280;22291;52.250;21.228;2022-09-13T09:05:50;99939.39;;;24.30;57.31
36254;BME280;22291;52.250;21.228;2022-09-13T09:14:35;99934.98;;;24.52;54.01
36254;BME280;22291;52.250;21.228;2022-09-13T09:17:16;99940.14;;;24.69;53.79
36254;BME280;22291;52.250;21.228;2022-09-13T09:19:50;99938.59;;;24.49;51.97
36254;BME280;22291;52.250;21.228;2022-09-13T09:22:22;99938.02;;;24.30;52.31
36254;BME280;22291;52.250;21.228;2022-09-13T09:24:53;99939.42;;;24.46;51.94
36254;BME280;22291;52.250;21.228;2022-09-13T09:27:21;99934.03;;;24.31;50.96
36254;BME280;22291;52.250;21.228;2022-09-13T09:29:50;99921.97;;;24.18;50.28
36254;BME280;22291;52.250;21.228;2022-09-13T09:38:35;99914.86;;;23.98;49.37
36254;BME280;22291;52.250;21.228;2022-09-13T09:41:15;99910.17;;;23.65;48.95
36254;BME280;22291;52.250;21.228;2022-09-13T09:47:11;99902.18;;;23.29;48.45
36254;BME280;22291;52.250;21.228;2022-09-13T09:49:45;99906.48;;;23.07;48.82
36254;BME280;22291;52.250;21.228;2022-09-13T09:55:27;99900.67;;;22.84;49.17
36254;BME280;22291;52.250;21.228;2022-09-13T09:58:12;99901.75;;;22.64;49.00
36254;BME280;22291;52.250;21.228;2022-09-13T10:00:56;99901.83;;;22.42;49.25
36254;BME280;22291;52.250;21.228;2022-09-13T10:03:27;99898.14;;;22.30;49.94
36254;BME280;22291;52.250;21.228;2022-09-13T10:06:07;99883.17;;;22.20;50.53
36254;BME280;22291;52.250;21.228;2022-09-13T10:08:40;99882.62;;;22.17;49.89
36254;BME280;22291;52.250;21.228;2022-09-13T10:11:07;99878.92;;;21.94;50.20
36254;BME280;22291;52.250;21.228;2022-09-13T10:13:34;99876.56;;;21.92;51.38
36254;BME280;22291;52.250;21.228;2022-09-13T10:16:26;99869.81;;;22.15;52.18
36254;BME280;22291;52.250;21.228;2022-09-13T10:19:42;99868.76;;;22.49;52.18
36254;BME280;22291;52.250;21.228;2022-09-13T10:21:52;99862.39;;;22.63;51.43
36254;BME280;22291;52.250;21.228;2022-09-13T10:24:18;99865.48;;;22.72;51.34
36254;BME280;22291;52.250;21.228;2022-09-13T10:26:45;99859.94;;;22.76;51.29
36254;BME280;22291;52.250;21.228;2022-09-13T10:29:14;99852.90;;;22.71;50.13
36254;BME280;22291;52.250;21.228;2022-09-13T10:31:43;99851.53;;;22.64;50.73
36254;BME280;22291;52.250;21.228;2022-09-13T10:34:19;99850.27;;;22.80;50.87
36254;BME280;22291;52.250;21.228;2022-09-13T10:37:05;99856.81;;;22.74;50.22
36254;BME280;22291;52.250;21.228;2022-09-13T10:42:27;99846.63;;;22.64;49.96
36254;BME280;22291;52.250;21.228;2022-09-13T10:45:05;99852.23;;;22.42;49.78
36254;BME280;22291;52.250;21.228;2022-09-13T10:47:43;99849.71;;;22.25;50.18
36254;BME280;22291;52.250;21.228;2022-09-13T10:50:19;99838.14;;;22.15;50.49
36254;BME280;22291;52.250;21.228;2022-09-13T10:52:55;99837.98;;;22.03;50.13
36254;BME280;22291;52.250;21.228;2022-09-13T10:55:35;99834.52;;;21.85;50.33
36254;BME280;22291;52.250;21.228;2022-09-13T11:06:34;99832.75;;;21.11;51.42
36254;BME280;22291;52.250;21.228;2022-09-13T11:09:06;99834.89;;;20.86;51.37
36254;BME280;22291;52.250;21.228;2022-09-13T11:11:52;99828.96;;;20.69;52.08
36254;BME280;22291;52.250;21.228;2022-09-13T11:27:01;99816.39;;;20.19;54.68
36254;BME280;22291;52.250;21.228;2022-09-13T11:29:40;99810.59;;;20.39;55.02
36254;BME280;22291;52.250;21.228;2022-09-13T11:32:21;99804.50;;;20.36;55.15
36254;BME280;22291;52.250;21.228;2022-09-13T11:40:45;99799.48;;;20.06;55.74
36254;BME280;22291;52.250;21.228;2022-09-13T11:43:45;99795.33;;;19.95;56.03
36254;BME280;22291;52.250;21.228;2022-09-13T11:46:37;99787.87;;;19.96;56.15
36254;BME280;22291;52.250;21.228;2022-09-13T11:55:33;99786.39;;;19.78;56.39
36254;BME280;22291;52.250;21.228;2022-09-13T11:58:22;99774.37;;;19.69;55.79
36254;BME280;22291;52.250;21.228;2022-09-13T12:00:56;99769.97;;;19.54;56.65
36254;BME280;22291;52.250;21.228;2022-09-13T12:06:24;99760.77;;;19.25;56.76
36254;BME280;22291;52.250;21.228;2022-09-13T12:11:49;99747.93;;;19.12;57.65
36254;BME280;22291;52.250;21.228;2022-09-13T12:14:24;99750.08;;;19.09;57.58
36254;BME280;22291;52.250;21.228;2022-09-13T12:16:51;99741.57;;;18.97;57.77
36254;BME280;22291;52.250;21.228;2022-09-13T12:19:22;99736.09;;;18.97;58.38
36254;BME280;22291;52.250;21.228;2022-09-13T12:21:52;99726.15;;;19.02;58.70
36254;BME280;22291;52.250;21.228;2022-09-13T12:30:05;99713.66;;;18.84;57.86
36254;BME280;22291;52.250;21.228;2022-09-13T12:32:44;99710.70;;;18.83;58.27
36254;BME280;22291;52.250;21.228;2022-09-13T12:40:57;99688.25;;;18.66;58.43
36254;BME280;22291;52.250;21.228;2022-09-13T13:00:28;99688.27;;;17.61;60.64
36254;BME280;22291;52.250;21.228;2022-09-13T13:03:00;99686.82;;;17.54;60.84
36254;BME280;22291;52.250;21.228;2022-09-13T13:05:44;99688.52;;;17.49;61.31
36254;BME280;22291;52.250;21.228;2022-09-13T13:11:09;99677.22;;;17.37;61.78
36254;BME280;22291;52.250;21.228;2022-09-13T13:16:28;99676.18;;;17.18;62.55
36254;BME280;22291;52.250;21.228;2022-09-13T13:19:00;99681.96;;;17.13;63.06
36254;BME280;22291;52.250;21.228;2022-09-13T13:21:37;99675.64;;;17.09;63.33
36254;BME280;22291;52.250;21.228;2022-09-13T13:26:51;99660.05;;;17.10;64.11
36254;BME280;22291;52.250;21.228;2022-09-13T13:39:48;99638.46;;;16.88;64.96
36254;BME280;22291;52.250;21.228;2022-09-13T13:42:34;99644.66;;;16.85;65.23
36254;BME280;22291;52.250;21.228;2022-09-13T13:45:24;99633.42;;;16.80;65.54
36254;BME280;22291;52.250;21.228;2022-09-13T13:48:12;99631.23;;;16.76;65.79
36254;BME280;22291;52.250;21.228;2022-09-13T13:53:46;99626.27;;;16.72;66.70
36254;BME280;22291;52.250;21.228;2022-09-13T13:56:21;99624.86;;;16.68;66.61
36254;BME280;22291;52.250;21.228;2022-09-13T13:59:06;99632.12;;;16.70;67.27
36254;BME280;22291;52.250;21.228;2022-09-13T14:01:48;99614.94;;;16.70;67.73
36254;BME280;22291;52.250;21.228;2022-09-13T14:04:29;99620.56;;;16.67;68.03
36254;BME280;22291;52.250;21.228;2022-09-13T14:18:39;99615.88;;;16.68;67.95
36254;BME280;22291;52.250;21.228;2022-09-13T14:21:27;99609.70;;;16.71;68.14
36254;BME280;22291;52.250;21.228;2022-09-13T14:24:20;99604.51;;;16.75;68.21
36254;BME280;22291;52.250;21.228;2022-09-13T14:26:50;99607.06;;;16.78;68.21
36254;BME280;22291;52.250;21.228;2022-09-13T14:29:20;99607.48;;;16.80;68.26
36254;BME280;22291;52.250;21.228;2022-09-13T14:31:49;99593.69;;;16.83;68.49
36254;BME280;22291;52.250;21.228;2022-09-13T14:34:28;99593.69;;;16.83;68.49
36254;BME280;22291;52.250;21.228;2022-09-13T14:37:02;99588.41;;;16.84;68.25
36254;BME280;22291;52.250;21.228;2022-09-13T14:39:31;99592.66;;;16.91;68.24
36254;BME280;22291;52.250;21.228;2022-09-13T14:42:15;99586.44;;;16.94;68.06
36254;BME280;22291;52.250;21.228;2022-09-13T14:44:44;99582.98;;;16.97;68.19
36254;BME280;22291;52.250;21.228;2022-09-13T14:50:11;99572.73;;;17.04;68.17
36254;BME280;22291;52.250;21.228;2022-09-13T14:52:44;99565.31;;;17.04;68.37
36254;BME280;22291;52.250;21.228;2022-09-13T14:55:15;99561.80;;;17.04;68.29
36254;BME280;22291;52.250;21.228;2022-09-13T14:57:48;99555.19;;;17.05;68.78
36254;BME280;22291;52.250;21.228;2022-09-13T15:00:20;99555.05;;;17.11;68.88
36254;BME280;22291;52.250;21.228;2022-09-13T15:02:56;99548.81;;;17.10;68.55
36254;BME280;22291;52.250;21.228;2022-09-13T15:05:28;99543.56;;;17.11;68.86
36254;BME280;22291;52.250;21.228;2022-09-13T15:07:57;99547.86;;;17.12;68.79
36254;BME280;22291;52.250;21.228;2022-09-13T15:10:26;99547.08;;;17.12;68.76
36254;BME280;22291;52.250;21.228;2022-09-13T15:15:35;99543.13;;;17.09;69.10
36254;BME280;22291;52.250;21.228;2022-09-13T15:18:28;99544.27;;;17.05;69.11
36254;BME280;22291;52.250;21.228;2022-09-13T15:20:56;99543.41;;;17.01;69.32
36254;BME280;22291;52.250;21.228;2022-09-13T15:23:33;99541.22;;;16.96;69.55
36254;BME280;22291;52.250;21.228;2022-09-13T15:26:38;99539.81;;;16.93;69.60
36254;BME280;22291;52.250;21.228;2022-09-13T15:28:58;99537.23;;;16.90;69.69
36254;BME280;22291;52.250;21.228;2022-09-13T15:31:29;99531.58;;;16.89;69.89
36254;BME280;22291;52.250;21.228;2022-09-13T15:36:47;99521.84;;;16.92;70.26
36254;BME280;22291;52.250;21.228;2022-09-13T15:39:19;99522.58;;;16.89;70.28
36254;BME280;22291;52.250;21.228;2022-09-13T15:41:57;99543.33;;;16.93;70.74
36254;BME280;22291;52.250;21.228;2022-09-13T15:44:26;99543.33;;;16.93;70.74
36254;BME280;22291;52.250;21.228;2022-09-13T15:47:01;99527.09;;;16.77;70.88
36254;BME280;22291;52.250;21.228;2022-09-13T15:49:30;99523.95;;;16.75;70.93
36254;BME280;22291;52.250;21.228;2022-09-13T15:52:02;99522.14;;;16.73;71.10
36254;BME280;22291;52.250;21.228;2022-09-13T15:54:39;99526.20;;;16.70;71.20
36254;BME280;22291;52.250;21.228;2022-09-13T15:57:11;99522.27;;;16.67;71.55
36254;BME280;22291;52.250;21.228;2022-09-13T15:59:44;99518.69;;;16.63;71.51
36254;BME280;22291;52.250;21.228;2022-09-13T16:04:54;99522.10;;;16.56;71.88
36254;BME280;22291;52.250;21.228;2022-09-13T16:07:21;99516.81;;;16.54;72.27
36254;BME280;22291;52.250;21.228;2022-09-13T16:09:49;99511.08;;;16.49;72.46
36254;BME280;22291;52.250;21.228;2022-09-13T16:12:18;99509.09;;;16.46;73.07
36254;BME280;22291;52.250;21.228;2022-09-13T16:14:46;99508.09;;;16.44;73.47
36254;BME280;22291;52.250;21.228;2022-09-13T16:17:26;99507.63;;;16.39;73.46
36254;BME280;22291;52.250;21.228;2022-09-13T16:19:53;99499.11;;;16.31;73.77
36254;BME280;22291;52.250;21.228;2022-09-13T16:22:21;99495.70;;;16.24;74.27
36254;BME280;22291;52.250;21.228;2022-09-13T16:24:48;99493.64;;;16.17;74.34
36254;BME280;22291;52.250;21.228;2022-09-13T16:27:16;99489.30;;;16.13;74.46
36254;BME280;22291;52.250;21.228;2022-09-13T16:29:44;99483.21;;;16.10;74.74